createdAt,value
2022-12-16T00:00:26.502Z,19.67
2022-12-16T00:02:55.229Z,21.00
2022-12-16T00:05:23.365Z,21.50
2022-12-16T00:07:51.388Z,18.30
2022-12-16T00:10:20.221Z,18.17
2022-12-16T00:12:48.633Z,19.05
2022-12-16T00:15:17.016Z,18.92
2022-12-16T00:17:45.187Z,17.92
2022-12-16T00:20:13.359Z,19.15
2022-12-16T00:22:41.645Z,19.38
2022-12-16T00:25:10.063Z,17.90
2022-12-16T00:27:38.186Z,17.73
2022-12-16T00:30:07.139Z,19.63
2022-12-16T00:32:35.439Z,18.23
2022-12-16T00:35:03.833Z,17.48
2022-12-16T00:37:32.162Z,18.35
2022-12-16T00:40:00.625Z,17.05
2022-12-16T00:42:28.808Z,17.75
2022-12-16T00:44:57.120Z,17.48
2022-12-16T00:47:26.120Z,18.27
2022-12-16T00:49:54.255Z,21.15
2022-12-16T00:52:24.289Z,23.15
2022-12-16T00:54:52.483Z,21.88
2022-12-16T00:57:21.456Z,25.15
2022-12-16T00:59:52.449Z,23.75
2022-12-16T01:04:48.814Z,21.85
2022-12-16T01:07:16.750Z,26.02
2022-12-16T01:09:44.334Z,25.63
2022-12-16T01:12:12.182Z,24.38
2022-12-16T01:14:40.167Z,24.70
2022-12-16T01:17:07.921Z,25.48
2022-12-16T01:19:35.901Z,23.33
2022-12-16T01:22:04.534Z,24.83
2022-12-16T01:24:32.645Z,22.17
2022-12-16T01:27:00.439Z,21.73
2022-12-16T01:29:28.317Z,20.52
2022-12-16T01:31:56.307Z,19.70
2022-12-16T01:34:25.085Z,21.10
2022-12-16T01:36:52.829Z,19.90
2022-12-16T01:39:20.783Z,22.83
2022-12-16T01:41:48.823Z,20.15
2022-12-16T01:44:22.429Z,21.20
2022-12-16T01:46:54.061Z,20.70
2022-12-16T01:49:38.113Z,19.80
2022-12-16T01:52:11.139Z,20.52
2022-12-16T01:54:44.487Z,18.48
2022-12-16T01:57:16.231Z,19.45
2022-12-16T01:59:47.350Z,20.70
2022-12-16T02:05:03.545Z,20.60
2022-12-16T02:07:31.489Z,19.40
2022-12-16T02:10:00.235Z,18.30
2022-12-16T02:12:36.876Z,17.30
2022-12-16T02:15:25.759Z,17.10
2022-12-16T02:18:15.005Z,16.77
2022-12-16T02:20:42.544Z,18.83
2022-12-16T02:23:28.520Z,17.17
2022-12-16T02:26:35.377Z,17.75
2022-12-16T02:29:40.193Z,21.45
2022-12-16T02:32:38.725Z,21.20
2022-12-16T02:35:19.466Z,19.60
2022-12-16T02:38:12.096Z,22.70
2022-12-16T02:40:45.339Z,22.60
2022-12-16T02:43:29.010Z,20.95
2022-12-16T02:45:56.647Z,22.05
2022-12-16T02:48:24.268Z,21.70
2022-12-16T02:50:52.890Z,21.75
2022-12-16T02:53:21.647Z,20.38
2022-12-16T02:56:11.933Z,22.25
2022-12-16T02:58:54.795Z,21.85
2022-12-16T03:01:45.057Z,19.17
2022-12-16T03:04:20.941Z,19.73
2022-12-16T03:06:51.612Z,21.42
2022-12-16T03:09:24.566Z,22.60
2022-12-16T03:11:55.361Z,21.50
2022-12-16T03:14:27.421Z,25.05
2022-12-16T03:16:56.777Z,24.42
2022-12-16T03:19:26.664Z,24.48
2022-12-16T03:22:06.473Z,23.23
2022-12-16T03:24:34.990Z,23.67
2022-12-16T03:27:43.126Z,21.48
2022-12-16T03:30:18.015Z,22.38
2022-12-16T03:32:51.567Z,21.20
2022-12-16T03:35:44.686Z,21.30
2022-12-16T03:38:14.502Z,20.65
2022-12-16T03:40:44.722Z,20.80
2022-12-16T03:43:17.210Z,19.38
2022-12-16T03:45:49.081Z,22.08
2022-12-16T03:48:19.096Z,20.40
2022-12-16T03:50:46.673Z,18.30
2022-12-16T03:53:14.298Z,20.90
2022-12-16T03:55:41.982Z,21.85
2022-12-16T03:58:09.543Z,20.13
2022-12-16T04:00:37.127Z,21.42
2022-12-16T04:03:04.872Z,19.60
2022-12-16T04:05:33.031Z,23.55
2022-12-16T04:08:02.294Z,22.20
2022-12-16T04:10:49.265Z,23.63
2022-12-16T04:13:35.677Z,21.65
2022-12-16T04:16:22.389Z,24.30
2022-12-16T04:19:08.958Z,26.77
2022-12-16T04:21:55.569Z,27.45
2022-12-16T04:24:27.684Z,23.95
2022-12-16T04:27:15.964Z,24.20
2022-12-16T04:30:02.620Z,24.42
2022-12-16T04:32:51.628Z,22.25
2022-12-16T04:35:42.141Z,22.52
2022-12-16T04:38:41.778Z,24.17
2022-12-16T04:41:27.847Z,26.02
2022-12-16T04:44:14.622Z,25.15
2022-12-16T04:47:00.769Z,22.60
2022-12-16T04:49:46.877Z,23.45
2022-12-16T04:52:33.562Z,25.60
2022-12-16T04:55:19.684Z,24.52
2022-12-16T04:58:14.239Z,25.38
2022-12-16T05:01:00.787Z,24.92
2022-12-16T05:03:47.587Z,25.67
2022-12-16T05:06:34.215Z,25.27
2022-12-16T05:09:20.407Z,26.98
2022-12-16T05:12:07.172Z,26.75
2022-12-16T05:14:53.479Z,26.10
2022-12-16T05:17:40.138Z,27.27
2022-12-16T05:20:26.816Z,28.52
2022-12-16T05:23:15.565Z,29.20
2022-12-16T05:26:01.621Z,30.60
2022-12-16T05:28:47.672Z,30.60
2022-12-16T05:31:33.950Z,28.90
2022-12-16T05:34:20.064Z,30.15
2022-12-16T05:37:06.297Z,30.92
2022-12-16T05:39:52.430Z,28.70
2022-12-16T05:42:38.421Z,28.17
2022-12-16T05:45:24.930Z,29.38
2022-12-16T05:48:11.003Z,30.27
2022-12-16T05:50:57.245Z,29.20
2022-12-16T05:53:43.537Z,28.70
2022-12-16T05:56:40.346Z,27.15
2022-12-16T05:59:26.764Z,28.13
2022-12-16T06:02:13.063Z,24.90
2022-12-16T06:04:59.241Z,30.05
2022-12-16T06:07:45.650Z,27.20
2022-12-16T06:10:31.683Z,33.90
2022-12-16T06:13:17.959Z,33.60
2022-12-16T06:16:08.680Z,26.40
2022-12-16T06:18:55.759Z,28.55
2022-12-16T06:21:41.897Z,29.20
2022-12-16T06:24:28.106Z,26.48
2022-12-16T06:27:34.037Z,27.58
2022-12-16T06:30:20.250Z,27.35
2022-12-16T06:33:06.503Z,27.20
2022-12-16T06:35:52.577Z,27.35
2022-12-16T06:38:38.804Z,25.58
2022-12-16T06:41:24.921Z,27.40
2022-12-16T06:44:11.197Z,29.27
2022-12-16T06:46:57.726Z,26.80
2022-12-16T06:49:43.966Z,27.25
2022-12-16T06:52:29.968Z,27.55
2022-12-16T06:55:16.238Z,25.52
2022-12-16T06:58:05.414Z,28.50
2022-12-16T07:00:55.776Z,24.48
2022-12-16T07:03:42.299Z,25.90
2022-12-16T07:06:29.052Z,26.85
2022-12-16T07:09:15.398Z,29.27
2022-12-16T07:12:01.527Z,28.95
2022-12-16T07:14:47.706Z,28.45
2022-12-16T07:17:33.821Z,29.23
2022-12-16T07:20:36.926Z,27.85
2022-12-16T07:23:23.202Z,27.30
2022-12-16T07:26:09.299Z,28.77
2022-12-16T07:28:57.347Z,28.10
2022-12-16T07:31:49.246Z,30.00
2022-12-16T07:34:40.330Z,31.02
2022-12-16T07:37:27.596Z,31.80
2022-12-16T07:40:13.672Z,28.88
2022-12-16T07:43:00.953Z,33.28
2022-12-16T07:45:47.165Z,32.17
2022-12-16T07:48:33.281Z,32.00
2022-12-16T07:51:19.506Z,32.08
2022-12-16T07:54:05.826Z,32.10
2022-12-16T07:56:52.089Z,32.53
2022-12-16T07:59:38.222Z,33.90
2022-12-16T08:02:24.625Z,36.10
2022-12-16T08:08:40.650Z,34.47
2022-12-16T08:11:26.638Z,36.67
2022-12-16T08:14:12.861Z,33.60
2022-12-16T08:16:59.149Z,33.72
2022-12-16T08:19:45.154Z,34.15
2022-12-16T08:22:31.278Z,35.40
2022-12-16T08:28:28.972Z,37.08
2022-12-16T08:31:15.521Z,39.33
2022-12-16T08:34:01.489Z,39.70
2022-12-16T08:36:47.623Z,37.92
2022-12-16T08:39:33.965Z,36.55
2022-12-16T08:42:20.208Z,38.60
2022-12-16T08:45:06.561Z,36.55
2022-12-16T08:47:52.636Z,37.83
2022-12-16T08:50:38.984Z,40.25
2022-12-16T08:53:25.274Z,42.58
2022-12-16T08:56:11.412Z,44.38
2022-12-16T08:58:57.604Z,41.08
2022-12-16T09:01:43.954Z,40.90
2022-12-16T14:56:34.678Z,52.65
2022-12-16T14:59:30.312Z,55.42
2022-12-16T15:02:19.128Z,55.13
2022-12-16T15:05:05.865Z,55.15
2022-12-16T15:07:55.929Z,56.55
2022-12-16T15:10:46.534Z,50.30
2022-12-16T15:13:36.705Z,52.60
2022-12-16T15:19:28.692Z,47.42
2022-12-16T15:22:19.779Z,52.65
2022-12-16T15:25:06.446Z,47.40
2022-12-16T15:27:55.589Z,50.50
2022-12-16T15:30:55.166Z,52.30
2022-12-16T15:33:46.736Z,50.10
2022-12-16T15:36:55.298Z,54.00
2022-12-16T15:39:56.133Z,51.47
2022-12-16T15:42:47.872Z,46.25
2022-12-16T15:45:42.885Z,49.85
2022-12-16T15:48:36.403Z,45.88
2022-12-16T15:51:22.629Z,45.00
2022-12-16T15:54:22.494Z,46.42
2022-12-16T15:57:09.206Z,43.00
2022-12-16T16:00:11.470Z,42.20
2022-12-16T16:03:05.239Z,45.20
2022-12-16T16:06:02.410Z,44.42
2022-12-16T16:08:48.750Z,48.40
2022-12-16T16:11:34.991Z,45.03
2022-12-16T16:14:21.174Z,49.95
2022-12-16T16:17:07.426Z,50.63
2022-12-16T16:19:53.742Z,52.05
2022-12-16T16:22:41.669Z,46.90
2022-12-16T16:25:30.270Z,51.33
2022-12-16T16:28:16.522Z,48.40
2022-12-16T16:31:02.863Z,56.47
2022-12-16T16:33:48.882Z,50.65
2022-12-16T16:36:35.687Z,54.40
2022-12-16T16:39:21.852Z,52.80
2022-12-16T16:42:07.936Z,44.65
2022-12-16T16:44:54.216Z,49.15
2022-12-16T16:47:40.442Z,53.38
2022-12-16T16:50:32.567Z,54.17
2022-12-16T16:53:18.739Z,47.35
2022-12-16T16:56:20.312Z,52.67
2022-12-16T16:59:07.005Z,49.00
2022-12-16T17:01:53.261Z,45.80
2022-12-16T17:04:46.727Z,48.50
2022-12-16T17:07:33.257Z,49.47
2022-12-16T17:10:19.413Z,52.22
2022-12-16T17:13:05.655Z,45.10
2022-12-16T17:15:55.541Z,48.55
2022-12-16T17:18:46.732Z,44.10
2022-12-16T17:21:35.599Z,47.13
2022-12-16T17:24:22.054Z,46.28
2022-12-16T17:28:20.652Z,47.58
